• Join FlightAware (Why Join?)
  • Login
  • US Flag 
06:00PM EDT


 

Airport Tracker/Info


-or-


 

Live Flight TrackerFlight Track Log ✈ SWA2236 ✈ 11-Jul-2013 ✈ KOAK - KLAS

Flight Track Log - Related Links

Times and Time Zones

All times are in EDT time to prevent confusion due to time zone crossing. See the SWA2236 flight status page for this flight to view local times or setup timezone preferences in your user account.

Time Position Orientation Groundspeed Altitude Reporting Facility
EDT Latitude Longitude Course Direction KTS MPH feet Rate Location/Type
12:17PM 37.7167 -122.2500 310° West 151 174 1,000  Level Northern Cal TRACON
12:18PM 37.7500 -122.3000 310° West 216 249 3,600 3,000 Climbing Northern Cal TRACON
12:19PM 37.7333 -122.3667 252° West 226 260 7,000 3,180 Climbing Northern Cal TRACON
12:20PM 37.6833 -122.4000 208° Southwest 249 287 10,000 2,160 Climbing Northern Cal TRACON
12:21PM 37.6000 -122.4000 180° South 331 381 11,400 2,400 Climbing Northern Cal TRACON
12:22PM 37.4911 -122.3036 145° Southeast 372 428 16,100 2,940 Climbing Oakland Center
12:23PM 37.4636 -122.1728 105° East 390 449 18,800 2,220 Climbing Oakland Center
12:24PM 37.4308 -122.0408 107° East 396 456 20,700 2,100 Climbing Oakland Center
12:25PM 37.3989 -121.9031 106° East 408 470 23,200 2,040 Climbing Oakland Center
12:26PM 37.3647 -121.7600 107° East 424 488 25,000 1,200 Climbing Oakland Center
12:27PM 37.3325 -121.6214 106° East 428 493 25,700 960 Climbing Oakland Center
12:28PM 37.2906 -121.4483 107° East 431 496 27,000 1,020 Climbing Oakland Center
12:29PM 37.2553 -121.2997 107° East 442 509 27,800 1,440 Climbing Oakland Center
12:30PM 37.2197 -121.1550 107° East 438 504 30,000 1,980 Climbing Oakland Center
12:31PM 37.1839 -121.0092 107° East 437 503 31,900 1,440 Climbing Oakland Center
12:32PM 37.1494 -120.8647 107° East 433 498 33,000 480 Climbing Oakland Center
12:34PM 37.1361 -120.7114 96° East 447 514 33,000  Level Oakland Center
12:35PM 37.1525 -120.5536 83° East 456 525 33,000  Level Oakland Center
12:36PM 37.1692 -120.3944 82° East 459 528 33,000  Level Oakland Center
12:37PM 37.1861 -120.2061 84° East 455 524 33,000  Level Oakland Center
12:38PM 37.2008 -120.0481 83° East 456 525 33,000  Level Oakland Center
12:39PM 37.2164 -119.8878 83° East 461 531 33,000  Level Oakland Center
12:40PM 37.2314 -119.7281 83° East 466 536 33,000  Level Oakland Center
12:41PM 37.2456 -119.5644 84° East 469 540 33,000  Level Oakland Center
12:42PM 37.2600 -119.4022 84° East 469 540 33,000  Level Oakland Center
12:43PM 37.2744 -119.2381 84° East 471 542 33,000  Level Oakland Center
12:44PM 37.2889 -119.0761 84° East 470 541 33,000  Level Oakland Center
12:45PM 37.3050 -118.8808 84° East 468 539 33,000  Level Oakland Center
12:46PM 37.3181 -118.7203 84° East 464 534 33,000  Level Oakland Center
12:47PM 37.3328 -118.5675 83° East 462 532 33,000  Level Oakland Center
12:48PM 37.3458 -118.4069 84° East 462 532 33,000  Level Oakland Center
12:49PM 37.3614 -118.2486 83° East 460 529 33,000  Level Oakland Center
12:50PM 37.4172 -118.0975 65° Northeast 477 549 33,000  Level Oakland Center
12:51PM 37.4742 -117.9469 64° Northeast 478 550 33,000  Level Oakland Center
12:52PM 37.5436 -117.7667 64° Northeast 478 550 33,000  Level Oakland Center
12:53PM 37.6014 -117.6164 64° Northeast 478 550 33,000  Level Oakland Center
12:54PM 37.6372 -117.4614 74° East 478 550 33,000  Level Oakland Center
12:55PM 37.5719 -117.3433 125° Southeast 433 498 33,000  Level Oakland Center
12:56PM 37.4661 -117.2967 161° South 405 466 33,000  Level Oakland Center
12:57PM 37.3681 -117.2300 152° Southeast 403 464 33,000  Level Oakland Center
12:58PM 37.2742 -117.1464 145° Southeast 413 475 33,000 -60 Level Oakland Center
12:59PM 37.1803 -117.0675 146° Southeast 407 468 32,900 -660 Descending Oakland Center
01:00PM 37.0672 -116.9725 146° Southeast 407 468 31,700 -1,080 Descending Oakland Center
01:01PM 37.0300 -116.9403 145° Southeast 410 472 31,300 -960 Descending Los Angeles Center
01:02PM 36.9361 -116.8614 146° Southeast 408 470 30,300 -1,020 Descending Los Angeles Center
01:03PM 36.8428 -116.7825 146° Southeast 405 466 29,300 -1,140 Descending Los Angeles Center
01:04PM 36.7467 -116.6686 136° Southeast 404 465 28,000 -1,140 Descending Los Angeles Center
01:05PM 36.6742 -116.5650 131° Southeast 400 460 27,000 -1,020 Descending Los Angeles Center
01:06PM 36.6019 -116.4622 131° Southeast 395 455 26,000 -1,140 Descending Los Angeles Center
01:07PM 36.5303 -116.3614 131° Southeast 390 449 24,700 -1,560 Descending Los Angeles Center
01:08PM 36.4650 -116.2681 131° Southeast 380 437 22,800 -2,040 Descending Los Angeles Center
01:09PM 36.3833 -116.1528 131° Southeast 375 432 20,600 -2,100 Descending Los Angeles Center
01:10PM 36.3375 -116.0922 133° Southeast 362 417 19,300 -1,920 Descending Los Angeles Center
01:10PM 36.2981 -116.0383 132° Southeast 350 403 18,200 -1,800 Descending Los Angeles Center
01:11PM 36.2511 -115.9675 129° Southeast 342 394 16,800 -1,200 Descending Los Angeles Center
01:12PM 36.1931 -115.8806 130° Southeast 329 379 16,000 -1,080 Descending Los Angeles Center
01:13PM 36.1583 -115.7669 111° Southeast 334 384 14,600 -1,200 Descending Los Angeles Center
01:14PM 36.1233 -115.6603 112° Southeast 334 384 13,600 -780 Descending Los Angeles Center
01:15PM 36.0894 -115.5575 112° Southeast 325 374 13,000 -300 Descending Los Angeles Center
01:16PM 36.0553 -115.4514 112° Southeast 305 351 13,000 -900 Level Los Angeles Center
01:17PM 36.0283 -115.3597 110° East 292 336 11,200 -1,560 Descending Los Angeles Center
01:18PM 36.0236 -115.2600 93° East 294 338 9,800 -1,080 Descending Los Angeles Center
01:20PM 36.0100 -115.0692 95° East 279 321 8,000 -720 Descending Los Angeles Center
01:21PM 36.0039 -114.9808 95° East 226 260 7,700 -540 Descending Los Angeles Center
01:22PM 36.0031 -114.9131 91° East 222 255 7,000 -600 Descending Los Angeles Center
01:23PM 36.0481 -114.8714 37° Northeast 208 239 6,500 -720 Descending Los Angeles Center
01:25PM 36.0667 -115.0251 270° West  Level FlightAware Approximate
01:25PM 36.1283 -114.9131 270° West 199 229 4,800  Level Los Angeles Center
01:26PM 36.1353 -114.9836 277° West 195 224 3,700 -720 Descending Los Angeles Center
01:27PM 36.1453 -115.0494 281° West 198 228 3,500 -300 Descending Los Angeles Center
01:28PM 36.1514 -115.1167 276° West 174 200 3,100 -420 Descending Los Angeles Center
01:29PM 36.1228 -115.1447 218° Southwest 164 189 2,700 -480 Descending Los Angeles Center
01:31PM 36.0844 -115.1644 203° Southwest 149 171 2,100 -540 Descending Los Angeles Center